createdAt,value
2018-09-03T00:02:01.145Z,10.57
2018-09-03T00:04:29.636Z,4.90
2018-09-03T00:06:58.136Z,5.43
2018-09-03T00:09:26.623Z,5.90
2018-09-03T00:11:55.091Z,5.73
2018-09-03T00:14:23.550Z,7.30
2018-09-03T00:16:51.990Z,6.33
2018-09-03T00:19:20.437Z,6.23
2018-09-03T00:21:48.900Z,5.97
2018-09-03T00:24:17.459Z,6.83
2018-09-03T00:26:46.042Z,6.10
2018-09-03T00:29:14.603Z,7.17
2018-09-03T00:31:48.404Z,7.50
2018-09-03T00:34:22.386Z,9.03
2018-09-03T00:36:56.270Z,7.57
2018-09-03T00:39:30.030Z,8.63
2018-09-03T00:42:03.733Z,9.33
2018-09-03T00:44:37.648Z,13.97
2018-09-03T00:47:08.346Z,14.53
2018-09-03T00:49:36.858Z,16.33
2018-09-03T00:52:05.453Z,10.93
2018-09-03T00:54:34.712Z,11.07
2018-09-03T00:57:03.180Z,11.23
2018-09-03T00:59:31.648Z,8.17
2018-09-03T01:02:00.172Z,8.40
2018-09-03T01:04:28.624Z,10.97
2018-09-03T01:06:57.170Z,7.80
2018-09-03T01:09:25.728Z,6.50
2018-09-03T01:11:54.216Z,6.23
2018-09-03T01:14:22.650Z,6.13
2018-09-03T01:16:51.094Z,7.07
2018-09-03T01:19:19.586Z,5.23
2018-09-03T01:21:48.044Z,4.87
2018-09-03T01:24:16.498Z,5.10
2018-09-03T01:26:44.970Z,3.80
2018-09-03T01:29:13.637Z,4.87
2018-09-03T01:31:42.094Z,4.87
2018-09-03T01:34:10.522Z,6.50
2018-09-03T01:36:38.986Z,4.50
2018-09-03T01:39:08.753Z,6.30
2018-09-03T01:41:37.170Z,4.33
2018-09-03T01:44:05.658Z,5.53
2018-09-03T01:46:34.102Z,5.37
2018-09-03T01:49:02.536Z,4.77
2018-09-03T01:51:31.027Z,4.43
2018-09-03T01:53:59.453Z,5.60
2018-09-03T01:56:27.865Z,5.50
2018-09-03T01:58:56.350Z,5.17
2018-09-03T02:01:24.789Z,4.67
2018-09-03T02:03:53.236Z,5.10
2018-09-03T02:06:21.677Z,5.43
2018-09-03T02:08:50.111Z,4.73
2018-09-03T02:11:18.579Z,5.97
2018-09-03T02:13:47.033Z,4.37
2018-09-03T02:16:15.482Z,6.03
2018-09-03T02:18:44.044Z,5.07
2018-09-03T02:21:12.553Z,6.90
2018-09-03T02:23:41.006Z,4.77
2018-09-03T02:26:09.459Z,4.97
2018-09-03T02:28:37.900Z,4.73
2018-09-03T02:31:06.443Z,5.17
2018-09-03T02:33:34.921Z,6.73
2018-09-03T02:36:03.435Z,6.40
2018-09-03T02:38:31.923Z,4.60
2018-09-03T02:41:00.352Z,4.83
2018-09-03T02:43:35.182Z,5.83
2018-09-03T02:46:03.634Z,4.20
2018-09-03T02:48:32.085Z,5.53
2018-09-03T02:51:00.515Z,6.33
2018-09-03T02:53:28.967Z,5.13
2018-09-03T02:55:57.396Z,6.07
2018-09-03T02:58:25.992Z,5.53
2018-09-03T03:00:54.443Z,10.27
2018-09-03T03:03:22.952Z,5.47
2018-09-03T03:05:51.399Z,6.17
2018-09-03T03:08:19.851Z,6.00
2018-09-03T03:10:51.242Z,5.73
2018-09-03T03:13:19.702Z,7.07
2018-09-03T03:15:48.218Z,5.63
2018-09-03T03:18:16.666Z,6.93
2018-09-03T03:20:45.100Z,6.10
2018-09-03T03:23:13.547Z,6.43
2018-09-03T03:25:42.056Z,5.77
2018-09-03T03:28:10.527Z,7.20
2018-09-03T03:30:38.993Z,6.67
2018-09-03T03:33:07.434Z,5.47
2018-09-03T03:35:36.034Z,5.73
2018-09-03T03:38:05.006Z,6.00
2018-09-03T03:40:33.422Z,6.83
2018-09-03T03:43:01.974Z,7.67
2018-09-03T03:45:33.510Z,5.83
2018-09-03T03:48:02.002Z,6.23
2018-09-03T03:50:30.552Z,6.93
2018-09-03T03:52:59.238Z,6.37
2018-09-03T03:55:27.706Z,7.40
2018-09-03T03:57:56.150Z,6.97
2018-09-03T04:00:24.718Z,8.70
2018-09-03T04:02:53.180Z,7.10
2018-09-03T04:05:22.004Z,6.03
2018-09-03T04:07:50.544Z,5.87
2018-09-03T04:10:19.019Z,6.57
2018-09-03T04:12:52.766Z,6.40
2018-09-03T04:15:21.770Z,5.87
2018-09-03T04:17:50.538Z,6.87
2018-09-03T04:20:18.989Z,6.47
2018-09-03T04:22:47.476Z,6.67
2018-09-03T04:25:15.913Z,7.03
2018-09-03T04:27:44.381Z,5.90
2018-09-03T04:30:12.978Z,6.80
2018-09-03T04:32:41.429Z,7.20
2018-09-03T04:35:09.871Z,6.30
2018-09-03T04:37:38.327Z,7.50
2018-09-03T04:40:06.781Z,5.93
2018-09-03T04:42:35.333Z,9.10
2018-09-03T04:45:04.128Z,10.10
2018-09-03T04:47:32.593Z,6.73
2018-09-03T04:50:01.063Z,7.20
2018-09-03T04:52:29.488Z,9.37
2018-09-03T04:54:57.976Z,8.07
2018-09-03T04:57:26.479Z,7.47
2018-09-03T04:59:55.276Z,7.33
2018-09-03T05:02:23.928Z,7.10
2018-09-03T05:04:52.377Z,6.77
2018-09-03T05:07:20.924Z,7.10
2018-09-03T05:09:49.464Z,7.13
2018-09-03T05:12:17.910Z,8.70
2018-09-03T05:14:46.477Z,8.30
2018-09-03T05:17:14.922Z,7.07
2018-09-03T05:19:43.344Z,8.30
2018-09-03T05:22:11.885Z,9.43
2018-09-03T05:24:40.399Z,16.77
2018-09-03T05:27:08.853Z,9.90
2018-09-03T05:29:37.384Z,8.87
2018-09-03T05:32:05.851Z,7.93
2018-09-03T05:34:34.310Z,7.57
2018-09-03T05:37:02.883Z,7.97
2018-09-03T05:39:31.442Z,7.60
2018-09-03T05:41:59.897Z,7.30
2018-09-03T05:44:28.364Z,8.07
2018-09-03T05:46:56.829Z,8.10
2018-09-03T05:49:25.497Z,8.30
2018-09-03T05:51:53.966Z,8.47
2018-09-03T05:54:22.443Z,9.63
2018-09-03T05:56:50.911Z,8.77
2018-09-03T05:59:19.380Z,8.83
2018-09-03T06:01:47.972Z,7.80
2018-09-03T06:04:16.463Z,8.17
2018-09-03T06:06:44.919Z,8.27
2018-09-03T06:09:13.775Z,10.40
2018-09-03T06:11:42.262Z,8.43
2018-09-03T06:14:10.827Z,12.93
2018-09-03T06:16:39.282Z,12.23
2018-09-03T06:19:07.777Z,9.73
2018-09-03T06:21:36.259Z,10.30
2018-09-03T06:24:04.896Z,13.30
2018-09-03T06:26:33.399Z,9.07
2018-09-03T06:29:01.874Z,11.10
2018-09-03T06:31:30.343Z,11.30
2018-09-03T06:33:58.833Z,11.63
2018-09-03T06:36:27.395Z,11.03
2018-09-03T06:38:55.851Z,10.00
2018-09-03T06:41:24.340Z,11.33
2018-09-03T06:43:52.785Z,10.43
2018-09-03T06:46:22.099Z,10.27
2018-09-03T06:48:50.535Z,9.73
2018-09-03T06:51:19.010Z,9.70
2018-09-03T06:53:47.513Z,9.53
2018-09-03T06:56:16.084Z,12.03
2018-09-03T06:58:44.582Z,9.33
2018-09-03T07:01:13.434Z,10.40
2018-09-03T07:03:42.534Z,9.63
2018-09-03T07:06:11.227Z,10.07
2018-09-03T07:08:40.119Z,9.90
2018-09-03T07:11:09.340Z,9.33
2018-09-03T07:13:37.878Z,9.87
2018-09-03T07:16:06.377Z,11.20
2018-09-03T07:18:34.962Z,10.53
2018-09-03T07:21:03.465Z,13.33
2018-09-03T07:23:31.997Z,12.47
2018-09-03T07:26:00.632Z,14.77
2018-09-03T07:28:29.323Z,11.20
2018-09-03T07:30:58.140Z,10.63
2018-09-03T07:33:26.634Z,11.77
2018-09-03T07:35:55.241Z,10.30
2018-09-03T07:38:24.241Z,10.60
2018-09-03T07:40:52.718Z,10.87
2018-09-03T07:43:21.230Z,10.37
2018-09-03T07:45:49.715Z,11.53
2018-09-03T07:48:18.174Z,11.53
2018-09-03T07:50:46.652Z,12.47
2018-09-03T07:53:15.135Z,12.57
2018-09-03T07:55:43.604Z,15.17
2018-09-03T07:58:12.069Z,13.03
2018-09-03T08:00:40.711Z,13.53
2018-09-03T08:03:09.170Z,15.47
2018-09-03T08:05:37.641Z,15.03
2018-09-03T08:08:06.592Z,13.73
2018-09-03T08:10:35.040Z,15.57
2018-09-03T08:13:03.687Z,13.63
2018-09-03T08:15:32.136Z,13.90
2018-09-03T08:18:00.596Z,13.07
2018-09-03T08:20:29.246Z,14.03
2018-09-03T08:22:57.731Z,14.43
2018-09-03T08:25:26.188Z,14.37
2018-09-03T08:27:54.662Z,15.07
2018-09-03T08:30:23.151Z,14.57
2018-09-03T08:32:51.777Z,14.57
2018-09-03T08:35:20.363Z,13.80
2018-09-03T08:37:48.863Z,14.27
2018-09-03T08:40:17.318Z,14.30
2018-09-03T08:42:45.776Z,14.97
2018-09-03T08:45:14.206Z,14.60
2018-09-03T08:47:42.772Z,15.03
2018-09-03T08:50:11.243Z,15.00
2018-09-03T08:52:39.712Z,15.83
2018-09-03T08:55:08.313Z,14.60
2018-09-03T08:57:36.802Z,14.67
2018-09-03T09:00:05.597Z,17.80
2018-09-03T09:02:34.148Z,14.83
2018-09-03T09:05:02.636Z,16.07
2018-09-03T09:07:31.701Z,15.37
2018-09-03T09:10:00.266Z,14.87
2018-09-03T09:12:28.735Z,16.03
2018-09-03T09:14:57.234Z,15.37
2018-09-03T09:17:25.746Z,16.23
2018-09-03T09:19:54.286Z,16.67
2018-09-03T09:22:22.759Z,14.97
2018-09-03T09:24:51.237Z,15.20
2018-09-03T09:27:19.764Z,16.33
2018-09-03T09:29:48.303Z,15.80
2018-09-03T09:32:16.801Z,14.17
2018-09-03T09:34:45.564Z,14.50
2018-09-03T09:37:14.062Z,13.23
2018-09-03T09:39:42.636Z,13.87
2018-09-03T09:42:11.120Z,13.93
2018-09-03T09:44:39.591Z,13.93
2018-09-03T09:47:08.066Z,12.57
2018-09-03T09:49:36.694Z,13.60
2018-09-03T09:52:05.357Z,14.07
2018-09-03T09:54:33.834Z,13.77
2018-09-03T09:57:02.433Z,12.87
2018-09-03T09:59:31.295Z,14.47
2018-09-03T10:01:59.770Z,14.70
2018-09-03T10:04:28.263Z,14.73
2018-09-03T10:06:56.857Z,13.80
2018-09-03T10:09:25.352Z,14.90
2018-09-03T10:11:53.876Z,13.63
2018-09-03T10:14:22.347Z,13.70
2018-09-03T10:16:50.852Z,13.53
2018-09-03T10:19:19.295Z,13.83
2018-09-03T10:21:47.757Z,13.53
2018-09-03T10:24:16.226Z,13.37
2018-09-03T10:26:44.939Z,13.50
2018-09-03T10:29:13.420Z,13.50
2018-09-03T10:31:41.883Z,12.67
2018-09-03T10:34:10.372Z,13.90
2018-09-03T10:36:38.876Z,13.80
2018-09-03T10:39:08.005Z,12.90
2018-09-03T10:41:36.655Z,12.70
2018-09-03T10:44:05.197Z,13.40
2018-09-03T10:46:33.668Z,12.40
2018-09-03T10:49:02.183Z,14.73
2018-09-03T10:51:32.101Z,13.23
2018-09-03T10:54:00.565Z,13.40
2018-09-03T10:56:29.127Z,17.47
2018-09-03T10:58:57.584Z,13.07
2018-09-03T11:01:26.123Z,14.37
2018-09-03T11:03:54.757Z,14.20
2018-09-03T11:06:23.230Z,13.80
2018-09-03T11:08:51.670Z,13.60
2018-09-03T11:11:20.390Z,15.20
2018-09-03T11:13:48.880Z,13.73
2018-09-03T11:16:17.548Z,13.03
2018-09-03T11:18:46.103Z,13.33
2018-09-03T11:21:14.681Z,13.33
2018-09-03T11:23:43.196Z,13.53
2018-09-03T11:26:11.821Z,11.83
2018-09-03T11:28:40.368Z,14.70
2018-09-03T11:31:08.786Z,12.30
2018-09-03T11:33:37.316Z,13.37
2018-09-03T11:39:27.965Z,13.17
2018-09-03T11:41:56.424Z,12.50
2018-09-03T11:44:24.910Z,12.57
2018-09-03T11:46:53.403Z,13.10
2018-09-03T11:49:21.904Z,14.23
2018-09-03T11:51:50.476Z,13.50
2018-09-03T11:54:19.157Z,13.27
2018-09-03T11:56:47.539Z,12.77
2018-09-03T11:59:16.055Z,13.07
2018-09-03T12:01:44.569Z,12.63
2018-09-03T12:04:13.065Z,13.10
2018-09-03T12:06:41.562Z,13.13
2018-09-03T12:09:11.395Z,12.43
2018-09-03T12:11:39.899Z,12.97
2018-09-03T12:14:11.056Z,12.47
2018-09-03T12:16:39.564Z,12.53
2018-09-03T12:19:08.218Z,13.63
2018-09-03T12:21:36.826Z,12.10
2018-09-03T12:24:05.344Z,13.37
2018-09-03T12:26:33.805Z,13.20
2018-09-03T12:29:02.294Z,14.87
2018-09-03T12:31:30.788Z,13.77
2018-09-03T12:34:00.384Z,12.77
2018-09-03T12:36:28.909Z,12.40
2018-09-03T12:38:57.390Z,12.37
2018-09-03T12:41:25.936Z,12.37
2018-09-03T12:43:54.699Z,12.53
2018-09-03T12:46:23.180Z,14.33
2018-09-03T12:48:51.643Z,13.57
2018-09-03T12:51:20.172Z,13.13
2018-09-03T12:53:48.596Z,14.73
2018-09-03T12:56:17.071Z,12.33
2018-09-03T12:58:45.679Z,13.90
2018-09-03T13:01:14.073Z,13.90
2018-09-03T13:03:42.574Z,12.67
2018-09-03T13:06:11.450Z,12.67
2018-09-03T13:08:40.076Z,16.13
2018-09-03T13:11:08.547Z,14.23
2018-09-03T13:13:37.111Z,12.37
2018-09-03T13:16:05.668Z,12.37
2018-09-03T13:18:34.151Z,13.47
2018-09-03T13:21:02.665Z,12.60
2018-09-03T13:23:31.185Z,11.63
2018-09-03T13:25:59.650Z,12.63
2018-09-03T13:28:28.198Z,11.33
2018-09-03T13:30:56.709Z,11.50
2018-09-03T13:33:25.214Z,11.43
2018-09-03T13:35:53.818Z,13.40
2018-09-03T13:38:22.303Z,10.90
2018-09-03T13:40:50.803Z,10.67
2018-09-03T13:43:19.257Z,12.43
2018-09-03T13:45:47.765Z,11.60
2018-09-03T13:48:16.311Z,12.23
2018-09-03T13:50:44.819Z,11.40
2018-09-03T13:53:13.280Z,11.90
2018-09-03T13:55:41.822Z,10.07
2018-09-03T13:58:10.301Z,10.30
2018-09-03T14:00:38.853Z,11.00
2018-09-03T14:03:07.505Z,10.00
2018-09-03T14:05:36.187Z,8.60
2018-09-03T14:08:04.665Z,9.37
2018-09-03T14:10:33.159Z,12.57
2018-09-03T14:13:01.648Z,10.40
2018-09-03T14:15:30.092Z,10.80
2018-09-03T14:17:58.528Z,9.27
2018-09-03T14:20:26.999Z,9.80
2018-09-03T14:22:55.438Z,8.63
2018-09-03T14:25:23.914Z,13.07
2018-09-03T14:27:52.424Z,13.00
2018-09-03T14:30:20.878Z,13.60
2018-09-03T14:32:49.346Z,14.23
2018-09-03T14:35:17.814Z,12.43
2018-09-03T14:37:46.277Z,12.57
2018-09-03T14:40:14.769Z,14.03
2018-09-03T14:42:43.297Z,12.47
2018-09-03T14:45:11.833Z,12.50
2018-09-03T14:47:40.303Z,14.73
2018-09-03T14:50:08.853Z,14.20
2018-09-03T14:52:37.363Z,13.13
2018-09-03T14:55:06.084Z,12.63
2018-09-03T14:57:34.621Z,11.90
2018-09-03T15:00:03.281Z,13.67
2018-09-03T15:02:31.770Z,12.57
2018-09-03T15:05:00.285Z,12.93
2018-09-03T15:07:28.823Z,12.90
2018-09-03T15:09:58.786Z,12.57
2018-09-03T15:12:30.830Z,13.10
2018-09-03T15:14:59.447Z,13.00
2018-09-03T15:17:28.006Z,13.07
2018-09-03T15:19:56.652Z,13.17
2018-09-03T15:22:25.190Z,14.47
2018-09-03T15:24:53.776Z,13.57
2018-09-03T15:27:22.308Z,14.87
2018-09-03T15:29:51.079Z,14.33
2018-09-03T15:32:19.688Z,14.50
2018-09-03T15:34:48.226Z,15.40
2018-09-03T15:37:16.726Z,15.80
2018-09-03T15:39:45.348Z,14.70
2018-09-03T15:42:13.882Z,16.57
2018-09-03T15:44:42.417Z,15.97
2018-09-03T15:47:10.894Z,15.67
2018-09-03T15:49:39.400Z,15.33
2018-09-03T15:52:07.879Z,15.03
2018-09-03T15:54:36.359Z,17.67
2018-09-03T15:57:04.900Z,16.33
2018-09-03T15:59:33.356Z,16.33
2018-09-03T16:02:01.826Z,17.23
2018-09-03T16:04:30.303Z,17.20
2018-09-03T16:06:58.740Z,15.70
2018-09-03T16:09:27.726Z,17.07
2018-09-03T16:11:56.748Z,15.10
2018-09-03T16:14:25.234Z,15.30
2018-09-03T16:16:53.716Z,16.53
2018-09-03T16:19:22.324Z,16.20
2018-09-03T16:21:50.790Z,17.40
2018-09-03T16:24:19.284Z,17.50
2018-09-03T16:26:47.850Z,19.23
2018-09-03T16:29:16.327Z,17.43
2018-09-03T16:31:44.866Z,17.27
2018-09-03T16:34:13.374Z,18.23
2018-09-03T16:36:41.880Z,17.67
2018-09-03T16:39:10.378Z,17.63
2018-09-03T16:41:38.869Z,18.13
2018-09-03T16:44:07.461Z,19.77
2018-09-03T16:46:35.940Z,17.67
2018-09-03T16:49:04.626Z,18.33
2018-09-03T16:51:33.016Z,17.57
2018-09-03T16:54:01.466Z,17.07
2018-09-03T16:56:29.971Z,17.87
2018-09-03T16:58:58.491Z,21.37
2018-09-03T17:01:27.183Z,18.93
2018-09-03T17:03:55.482Z,17.57
2018-09-03T17:06:23.934Z,16.73
2018-09-03T17:08:52.413Z,16.83
2018-09-03T17:11:21.040Z,17.23
2018-09-03T17:13:49.658Z,18.63
2018-09-03T17:16:18.163Z,18.70
2018-09-03T17:18:46.651Z,18.43
2018-09-03T17:21:15.119Z,18.03
2018-09-03T17:23:43.643Z,18.33
2018-09-03T17:26:12.366Z,16.70
2018-09-03T17:28:40.907Z,22.00
2018-09-03T17:31:09.817Z,16.23
2018-09-03T17:33:38.395Z,18.10
2018-09-03T17:36:06.907Z,18.60
2018-09-03T17:38:35.555Z,17.13
2018-09-03T17:41:04.088Z,16.47
2018-09-03T17:43:32.568Z,16.73
2018-09-03T17:46:01.061Z,19.20
2018-09-03T17:48:29.585Z,18.07
2018-09-03T17:50:58.132Z,17.70
2018-09-03T17:53:26.663Z,15.93
2018-09-03T17:55:55.135Z,15.00
2018-09-03T17:58:23.698Z,17.17
2018-09-03T18:00:52.255Z,15.33
2018-09-03T18:03:20.978Z,17.10
2018-09-03T18:05:49.504Z,15.13
2018-09-03T18:08:18.105Z,13.70
2018-09-03T18:10:48.452Z,16.00
2018-09-03T18:13:16.932Z,16.37
2018-09-03T18:15:46.198Z,17.83
2018-09-03T18:18:14.818Z,15.83
2018-09-03T18:20:43.960Z,16.13
2018-09-03T18:23:12.998Z,14.97
2018-09-03T18:25:41.496Z,13.53
2018-09-03T18:28:11.310Z,14.67
2018-09-03T18:30:40.489Z,16.57
2018-09-03T18:33:09.140Z,16.07
2018-09-03T18:35:37.740Z,14.07
2018-09-03T18:38:06.231Z,17.27
2018-09-03T18:40:35.104Z,19.27
2018-09-03T18:43:03.590Z,17.37
2018-09-03T18:45:32.811Z,19.07
2018-09-03T18:48:01.528Z,16.30
2018-09-03T18:50:30.015Z,15.57
2018-09-03T18:52:58.548Z,13.80
2018-09-03T18:55:27.330Z,20.80
2018-09-03T18:57:57.069Z,15.63
2018-09-03T19:00:25.616Z,17.57
2018-09-03T19:02:54.079Z,17.07
2018-09-03T19:05:22.658Z,19.20
2018-09-03T19:07:51.121Z,18.47
2018-09-03T19:10:19.610Z,20.37
2018-09-03T19:12:48.077Z,19.37
2018-09-03T19:15:16.534Z,18.70
2018-09-03T19:17:45.079Z,19.70
2018-09-03T19:20:13.681Z,19.70
2018-09-03T19:22:42.117Z,16.93
2018-09-03T19:25:10.596Z,17.00
2018-09-03T19:27:39.078Z,16.20
2018-09-03T19:30:08.158Z,21.93
2018-09-03T19:32:36.725Z,20.63
2018-09-03T19:35:05.750Z,17.77
2018-09-03T19:37:34.267Z,16.27
2018-09-03T19:40:02.996Z,17.73
2018-09-03T19:42:31.505Z,17.20
2018-09-03T19:45:00.062Z,17.03
2018-09-03T19:47:28.503Z,17.17
2018-09-03T19:49:58.722Z,18.23
2018-09-03T19:52:27.155Z,18.17
2018-09-03T19:54:55.608Z,20.23
2018-09-03T19:57:24.171Z,20.73
2018-09-03T19:59:52.880Z,19.27
2018-09-03T20:02:21.398Z,20.37
2018-09-03T20:04:50.479Z,19.37
2018-09-03T20:07:19.033Z,19.67
2018-09-03T20:09:47.495Z,19.73
2018-09-03T20:12:15.991Z,20.87
2018-09-03T20:14:44.522Z,21.03
2018-09-03T20:17:13.042Z,22.43
2018-09-03T20:19:41.468Z,18.20
2018-09-03T20:22:15.766Z,19.17
2018-09-03T20:24:44.565Z,22.97
2018-09-03T20:27:13.659Z,21.67
2018-09-03T20:29:43.143Z,22.47
2018-09-03T20:32:18.142Z,22.83
2018-09-03T20:34:46.626Z,20.60
2018-09-03T20:37:15.330Z,21.57
2018-09-03T20:39:43.833Z,20.03
2018-09-03T20:42:12.369Z,25.57
2018-09-03T20:44:40.919Z,20.27
2018-09-03T20:47:09.395Z,23.27
2018-09-03T20:49:37.857Z,22.60
2018-09-03T20:52:06.482Z,20.97
2018-09-03T20:54:35.103Z,23.00
2018-09-03T20:57:05.298Z,21.67
2018-09-03T20:59:33.794Z,23.63
2018-09-03T21:02:05.482Z,25.97
2018-09-03T21:04:34.116Z,23.20
2018-09-03T21:07:02.782Z,28.93
2018-09-03T21:09:31.254Z,26.37
2018-09-03T21:11:59.881Z,26.67
2018-09-03T21:14:28.406Z,24.83
2018-09-03T21:16:56.826Z,23.77
2018-09-03T21:19:25.280Z,25.00
2018-09-03T21:21:54.409Z,25.53
2018-09-03T21:24:22.862Z,24.23
2018-09-03T21:26:58.125Z,25.10
2018-09-03T21:29:26.618Z,27.33
2018-09-03T21:31:55.272Z,28.87
2018-09-03T21:34:23.868Z,25.63
2018-09-03T21:36:52.560Z,22.70
2018-09-03T21:39:21.015Z,23.03
2018-09-03T21:41:49.579Z,25.47
2018-09-03T21:44:18.304Z,30.60
2018-09-03T21:46:46.802Z,23.37
2018-09-03T21:49:15.398Z,27.40
2018-09-03T21:51:43.937Z,25.87
2018-09-03T21:54:12.497Z,24.97
2018-09-03T21:56:40.984Z,27.33
2018-09-03T21:59:09.448Z,25.37
2018-09-03T22:01:38.089Z,28.17
2018-09-03T22:04:06.530Z,24.73
2018-09-03T22:06:34.975Z,24.37
2018-09-03T22:09:04.682Z,24.43
2018-09-03T22:11:33.346Z,24.73
2018-09-03T22:14:01.902Z,26.63
2018-09-03T22:16:30.467Z,25.97
2018-09-03T22:18:58.952Z,24.60
2018-09-03T22:21:27.394Z,26.20
2018-09-03T22:23:56.120Z,30.60
2018-09-03T22:26:24.584Z,27.17
2018-09-03T22:28:53.082Z,26.83
2018-09-03T22:31:21.611Z,29.27
2018-09-03T22:33:50.070Z,25.77
2018-09-03T22:36:18.636Z,27.73
2018-09-03T22:38:47.347Z,31.50
2018-09-03T22:41:15.894Z,28.13
2018-09-03T22:43:44.741Z,32.10
2018-09-03T22:46:13.738Z,28.27
2018-09-03T22:48:42.290Z,30.80
2018-09-03T22:51:10.868Z,26.27
2018-09-03T22:53:39.335Z,29.00
2018-09-03T22:56:07.828Z,32.00
2018-09-03T22:58:36.297Z,30.73
2018-09-03T23:01:04.780Z,31.00
2018-09-03T23:03:33.262Z,31.20
2018-09-03T23:06:01.746Z,32.57
2018-09-03T23:08:30.183Z,30.00
2018-09-03T23:10:58.661Z,33.30
2018-09-03T23:13:27.104Z,32.13
2018-09-03T23:15:55.560Z,34.50
2018-09-03T23:18:24.560Z,32.90
2018-09-03T23:20:53.036Z,35.33
2018-09-03T23:23:21.657Z,34.90
2018-09-03T23:25:50.112Z,32.40
2018-09-03T23:28:18.561Z,34.10
2018-09-03T23:30:47.053Z,33.77
2018-09-03T23:33:15.570Z,32.17
2018-09-03T23:35:44.051Z,35.37
2018-09-03T23:38:12.479Z,35.50
2018-09-03T23:40:40.971Z,36.00
2018-09-03T23:43:09.410Z,37.70
2018-09-03T23:45:37.988Z,35.43
2018-09-03T23:48:06.641Z,38.90
2018-09-03T23:50:35.203Z,37.13
2018-09-03T23:53:03.873Z,39.03
2018-09-03T23:55:32.468Z,37.10
2018-09-03T23:58:00.918Z,35.13
